createdAt,value
2018-03-04T00:04:16.352Z,71.30
2018-03-04T00:09:19.738Z,70.50
2018-03-04T00:14:23.001Z,70.60
2018-03-04T00:19:25.855Z,71.40
2018-03-04T00:24:29.127Z,71.20
2018-03-04T00:29:32.731Z,71.10
2018-03-04T00:34:35.438Z,71.10
2018-03-04T00:39:38.486Z,70.50
2018-03-04T00:44:41.142Z,70.70
2018-03-04T00:49:43.816Z,70.10
2018-03-04T00:54:46.812Z,69.90
2018-03-04T00:59:50.105Z,69.60
2018-03-04T01:04:53.772Z,69.20
2018-03-04T01:09:56.467Z,68.90
2018-03-04T01:14:59.306Z,69.20
2018-03-04T01:20:02.756Z,69.70
2018-03-04T01:25:05.398Z,69.60
2018-03-04T01:30:08.301Z,70.00
2018-03-04T01:35:11.046Z,70.00
2018-03-04T01:40:14.681Z,69.60
2018-03-04T01:45:17.355Z,69.50
2018-03-04T01:50:20.819Z,70.00
2018-03-04T01:55:23.771Z,69.80
2018-03-04T02:00:26.722Z,69.60
2018-03-04T02:05:30.117Z,69.20
2018-03-04T02:10:33.070Z,69.10
2018-03-04T02:15:35.948Z,69.20
2018-03-04T02:20:39.966Z,69.50
2018-03-04T02:25:43.265Z,69.50
2018-03-04T02:30:46.585Z,69.20
2018-03-04T02:35:49.494Z,69.10
2018-03-04T02:40:52.423Z,69.60
2018-03-04T02:45:55.703Z,69.70
2018-03-04T02:50:58.519Z,69.30
2018-03-04T02:56:01.451Z,69.50
2018-03-04T03:01:05.026Z,69.70
2018-03-04T03:06:08.326Z,69.60
2018-03-04T03:11:10.977Z,69.70
2018-03-04T03:16:13.623Z,70.00
2018-03-04T03:21:16.496Z,69.90
2018-03-04T03:26:19.478Z,70.30
2018-03-04T03:31:22.372Z,70.80
2018-03-04T03:36:25.661Z,71.10
2018-03-04T03:41:28.400Z,70.50
2018-03-04T03:46:32.629Z,71.00
2018-03-04T03:51:35.540Z,70.80
2018-03-04T03:56:38.271Z,71.60
2018-03-04T04:01:44.253Z,71.20
2018-03-04T04:06:47.160Z,72.50
2018-03-04T04:11:49.842Z,71.80
2018-03-04T04:16:53.912Z,71.50
2018-03-04T04:21:56.919Z,71.00
2018-03-04T04:27:00.252Z,70.30
2018-03-04T04:32:03.694Z,71.40
2018-03-04T04:37:07.055Z,71.30
2018-03-04T04:42:10.406Z,71.90
2018-03-04T04:47:13.831Z,71.60
2018-03-04T04:52:17.484Z,71.60
2018-03-04T04:57:20.115Z,71.60
2018-03-04T05:02:23.437Z,72.40
2018-03-04T05:07:26.082Z,72.40
2018-03-04T05:12:28.707Z,71.50
2018-03-04T05:17:31.440Z,72.00
2018-03-04T05:22:34.846Z,72.70
2018-03-04T05:27:37.484Z,73.10
2018-03-04T05:32:40.101Z,72.80
2018-03-04T05:37:42.882Z,72.90
2018-03-04T05:42:45.573Z,73.40
2018-03-04T05:47:48.928Z,73.40
2018-03-04T05:52:53.013Z,73.70
2018-03-04T05:57:56.759Z,73.50
2018-03-04T06:03:00.366Z,72.80
2018-03-04T06:08:03.101Z,72.60
2018-03-04T06:13:06.070Z,73.30
2018-03-04T06:18:09.361Z,73.00
2018-03-04T06:23:13.052Z,73.40
2018-03-04T06:28:15.735Z,73.60
2018-03-04T06:33:18.576Z,73.00
2018-03-04T06:38:21.944Z,74.10
2018-03-04T06:43:25.298Z,74.10
2018-03-04T06:48:27.886Z,73.10
2018-03-04T06:53:31.146Z,74.10
2018-03-04T06:58:33.737Z,74.80
2018-03-04T07:03:38.611Z,74.60
2018-03-04T07:08:41.907Z,74.70
2018-03-04T07:13:45.525Z,75.60
2018-03-04T07:18:49.735Z,75.50
2018-03-04T07:23:52.392Z,74.40
2018-03-04T07:28:55.650Z,74.00
2018-03-04T07:33:58.526Z,74.50
2018-03-04T07:39:01.860Z,74.30
2018-03-04T07:44:06.069Z,74.70
2018-03-04T07:49:08.691Z,73.90
2018-03-04T07:54:11.588Z,73.60
2018-03-04T07:59:14.230Z,74.40
2018-03-04T08:04:18.490Z,73.50
2018-03-04T08:09:21.844Z,73.80
2018-03-04T08:14:24.424Z,73.80
2018-03-04T08:19:27.113Z,74.30
2018-03-04T08:24:39.782Z,74.10
2018-03-04T08:29:45.692Z,74.00
2018-03-04T08:34:49.909Z,74.30
2018-03-04T08:39:52.511Z,74.80
2018-03-04T08:44:59.200Z,74.80
2018-03-04T08:50:02.100Z,74.80
2018-03-04T08:55:06.119Z,74.60
2018-03-04T09:00:08.799Z,74.70
2018-03-04T09:05:11.447Z,74.60
2018-03-04T09:10:14.089Z,74.90
2018-03-04T09:20:23.608Z,75.10
2018-03-04T09:25:27.114Z,75.10
2018-03-04T09:30:30.507Z,75.20
2018-03-04T09:35:33.866Z,75.40
2018-03-04T09:40:36.698Z,75.40
2018-03-04T09:45:40.177Z,75.20
2018-03-04T09:50:43.540Z,75.00
2018-03-04T10:00:53.690Z,74.90
2018-03-04T10:05:56.582Z,74.80
2018-03-04T10:10:59.434Z,74.60
2018-03-04T10:16:02.716Z,74.60
2018-03-04T10:21:05.978Z,74.20
2018-03-04T10:26:08.569Z,74.00
2018-03-04T10:31:13.460Z,73.60
2018-03-04T10:36:16.278Z,73.60
2018-03-04T10:41:19.156Z,73.40
2018-03-04T10:46:22.460Z,73.30
2018-03-04T10:51:25.662Z,73.10
2018-03-04T10:56:28.479Z,73.10
2018-03-04T11:01:35.598Z,73.00
2018-03-04T11:06:38.489Z,72.70
2018-03-04T11:11:41.887Z,71.60
2018-03-04T11:16:45.117Z,71.60
2018-03-04T11:21:48.424Z,71.40
2018-03-04T11:26:51.810Z,70.60
2018-03-04T11:31:55.103Z,70.50
2018-03-04T11:36:57.708Z,70.70
2018-03-04T11:42:00.314Z,69.30
2018-03-04T11:47:03.485Z,68.70
2018-03-04T11:52:06.898Z,67.60
2018-03-04T11:57:09.627Z,67.40
2018-03-04T12:02:12.986Z,67.30
2018-03-04T12:07:15.670Z,66.10
2018-03-04T12:12:18.391Z,66.30
2018-03-04T12:17:21.692Z,67.10
2018-03-04T12:22:25.113Z,66.60
2018-03-04T12:27:29.340Z,65.40
2018-03-04T12:32:32.126Z,65.10
2018-03-04T12:37:34.906Z,64.70
2018-03-04T12:42:38.473Z,65.30
2018-03-04T12:47:41.338Z,66.20
2018-03-04T12:52:44.913Z,66.40
2018-03-04T12:57:47.782Z,66.40
2018-03-04T13:02:50.702Z,64.10
2018-03-04T13:07:54.107Z,63.90
2018-03-04T13:12:58.714Z,67.10
2018-03-04T13:18:02.018Z,66.70
2018-03-04T13:23:05.023Z,65.50
2018-03-04T13:28:07.782Z,65.30
2018-03-04T13:33:10.518Z,65.10
2018-03-04T13:38:13.832Z,63.90
2018-03-04T13:43:16.452Z,63.80
2018-03-04T13:48:19.781Z,62.90
2018-03-04T13:53:23.144Z,62.40
2018-03-04T13:58:25.800Z,63.70
2018-03-04T14:03:28.591Z,63.70
2018-03-04T14:08:31.422Z,63.10
2018-03-04T14:13:34.983Z,62.60
2018-03-04T14:18:39.720Z,63.40
2018-03-04T14:23:43.049Z,61.90
2018-03-04T14:28:45.642Z,62.90
2018-03-04T14:33:49.408Z,61.50
2018-03-04T14:38:52.251Z,61.50
2018-03-04T14:43:55.065Z,62.50
2018-03-04T14:48:58.437Z,61.90
2018-03-04T14:54:01.084Z,61.80
2018-03-04T14:59:05.312Z,61.70
2018-03-04T15:04:07.914Z,61.70
2018-03-04T15:09:11.374Z,61.30
2018-03-04T15:14:14.785Z,62.00
2018-03-04T15:19:17.653Z,63.30
2018-03-04T15:24:20.498Z,62.20
2018-03-04T15:29:23.184Z,62.90
2018-03-04T15:34:26.106Z,63.20
2018-03-04T15:39:28.824Z,62.70
2018-03-04T15:44:33.082Z,63.30
2018-03-04T15:49:38.169Z,63.00
2018-03-04T15:54:40.906Z,63.40
2018-03-04T15:59:43.686Z,64.20
2018-03-04T16:04:46.602Z,63.50
2018-03-04T16:09:49.397Z,63.90
2018-03-04T16:14:52.254Z,64.30
2018-03-04T16:19:55.458Z,64.50
2018-03-04T16:24:58.187Z,64.50
2018-03-04T16:30:00.790Z,64.70
2018-03-04T16:35:05.056Z,65.10
2018-03-04T16:40:18.605Z,65.50
2018-03-04T16:45:21.939Z,65.20
2018-03-04T16:50:24.526Z,64.50
2018-03-04T16:55:28.234Z,65.50
2018-03-04T17:00:30.939Z,65.50
2018-03-04T17:32:06.651Z,66.10
2018-03-04T17:37:09.660Z,66.10
2018-03-04T17:42:12.540Z,66.30
2018-03-04T17:47:15.162Z,66.10
2018-03-04T17:52:18.075Z,66.20
2018-03-04T17:57:21.427Z,66.10
2018-03-04T18:02:24.856Z,66.00
2018-03-04T18:07:27.545Z,65.70
2018-03-04T18:12:30.864Z,65.50
2018-03-04T18:17:34.220Z,66.60
2018-03-04T18:22:37.796Z,65.90
2018-03-04T18:27:42.466Z,66.40
2018-03-04T18:32:45.007Z,66.30
2018-03-04T18:37:47.670Z,66.40
2018-03-04T18:42:50.276Z,66.60
2018-03-04T18:47:52.950Z,66.50
2018-03-04T18:52:55.683Z,66.60
2018-03-04T18:57:59.169Z,67.00
2018-03-04T19:03:02.626Z,66.90
2018-03-04T19:08:05.381Z,66.80
2018-03-04T19:13:08.703Z,67.00
2018-03-04T19:18:11.394Z,66.60
2018-03-04T19:23:16.285Z,67.00
2018-03-04T19:28:19.463Z,66.90
2018-03-04T19:33:23.089Z,67.20
2018-03-04T19:38:25.943Z,67.10
2018-03-04T19:43:28.595Z,67.40
2018-03-04T19:48:31.167Z,67.70
2018-03-04T19:53:34.522Z,68.00
2018-03-04T19:58:37.924Z,68.40
2018-03-04T20:03:42.102Z,68.20
2018-03-04T20:08:44.950Z,68.10
2018-03-04T20:13:47.921Z,68.90
2018-03-04T20:18:52.244Z,68.50
2018-03-04T20:23:55.832Z,68.80
2018-03-04T20:28:59.154Z,68.90
2018-03-04T20:34:02.823Z,69.20
2018-03-04T20:39:05.512Z,69.30
2018-03-04T20:44:08.618Z,69.60
2018-03-04T20:49:11.438Z,69.50
2018-03-04T20:54:14.233Z,69.90
2018-03-04T20:59:16.919Z,69.90
2018-03-04T21:04:19.576Z,70.00
2018-03-04T21:09:22.938Z,70.20
2018-03-04T21:14:26.427Z,70.50
2018-03-04T21:19:29.182Z,70.50
2018-03-04T21:24:31.865Z,70.50
2018-03-04T21:29:35.286Z,70.20
2018-03-04T21:34:38.151Z,70.20
2018-03-04T21:39:40.839Z,70.20
2018-03-04T21:44:43.982Z,70.10
2018-03-04T21:49:46.891Z,70.20
2018-03-04T21:54:49.890Z,70.40
2018-03-04T21:59:52.588Z,70.40
2018-03-04T22:04:55.552Z,70.50
2018-03-04T22:09:58.191Z,70.60
2018-03-04T22:15:02.569Z,71.70
2018-03-04T22:20:07.564Z,71.50
2018-03-04T22:25:10.234Z,71.50
2018-03-04T22:30:13.100Z,71.30
2018-03-04T22:35:15.790Z,71.30
2018-03-04T22:40:18.442Z,71.30
2018-03-04T22:45:22.681Z,71.30
2018-03-04T22:50:25.974Z,70.50
2018-03-04T22:55:28.898Z,71.60
2018-03-04T23:00:32.210Z,71.40
2018-03-04T23:05:36.316Z,71.10
2018-03-04T23:10:39.107Z,71.10
2018-03-04T23:15:42.046Z,71.10
2018-03-04T23:20:44.703Z,71.20
2018-03-04T23:25:47.654Z,71.10
2018-03-04T23:30:50.561Z,70.80
2018-03-04T23:35:53.317Z,71.60
2018-03-04T23:40:57.307Z,70.10
2018-03-04T23:45:59.974Z,70.40
2018-03-04T23:51:02.940Z,70.20
2018-03-04T23:56:08.866Z,70.10
